Pleasant Grove, California
Current Conditions -  °F | °C
As of 7:15 PM on Monday 26 Jan 2015 (Local Time) from KLHM Reporting Station
Clear Clear  
Wind Chill: 10°   Ceiling: Unl
Heat Index: 10°   Visibility: 7mi
Dew Point:   Wind: 7mph
Humidity: 82%   Direction: 160°SSE
Pressure: 29.99"   Gusts: NA
Location:  38.82°N, 121.48°W
Report Text: KLHM 270315Z AUTO 16006KT 7SM CLR 10/07 A2999 RMK AO1
Loading
Personal Weather Stations






























Interactive Weather Map New forecast layout! Learn more

10-Day Weather Forecast

Advertisements
Track Severe Weather on mobile